Time;durP1;ratioP1;P1;durP2;ratioP2;P2;SDS_P1;SDS_P2;PMS_P1;PMS_P2;Temp;Humidity;BMP_temperature;BMP_pressure;BME280_temperature;BME280_humidity;BME280_pressure;Samples;Min_cycle;Max_cycle;Signal;HPM_P1;HPM_P2
2022/11/23 00:01:32;;;;;;;;;;;10.10;99.90;;;;;;6098418;23;19908;-78
2022/11/23 00:04:05;;;;;;;;;;;10.10;99.90;;;;;;6096818;23;19901;-78
2022/11/23 00:06:30;;;;;;;;;;;10.20;99.90;;;;;;6098516;23;19905;-76
2022/11/23 00:08:56;;;;;;;;;;;10.10;99.90;;;;;;6098300;23;20421;-77
2022/11/23 00:11:22;;;;;;;;;;;10.10;99.90;;;;;;6098299;23;20269;-77
2022/11/23 00:13:48;;;;;;;;;;;10.20;99.90;;;;;;6098448;23;19975;-77
2022/11/23 00:16:15;;;;;;;;;;;10.20;99.90;;;;;;6098249;23;19943;-77
2022/11/23 00:18:41;;;;;;;;;;;10.20;99.90;;;;;;6098093;23;19905;-77
2022/11/23 00:21:08;;;;;;;;;;;10.10;99.90;;;;;;6096685;23;19933;-78
2022/11/23 00:23:34;;;;;;;;;;;10.20;99.90;;;;;;6096642;23;19916;-77
2022/11/23 00:25:59;;;;;;;;;;;10.10;99.90;;;;;;6098362;23;19901;-78
2022/11/23 00:28:25;;;;;;;;;;;10.10;99.90;;;;;;6097972;23;19952;-77
2022/11/23 00:30:50;;;;;;;;;;;10.10;99.90;;;;;;6096589;23;20284;-78
2022/11/23 00:33:16;;;;;;;;;;;10.10;99.90;;;;;;6097677;23;19924;-77
2022/11/23 00:35:42;;;;;;;;;;;10.00;99.90;;;;;;6098196;23;20221;-77
2022/11/23 00:38:07;;;;;;;;;;;10.00;99.90;;;;;;6098105;23;19952;-77
2022/11/23 00:40:33;;;;;;;;;;;10.00;99.90;;;;;;6097995;23;19905;-77
2022/11/23 00:42:58;;;;;;;;;;;9.90;99.90;;;;;;6098034;23;20316;-77
2022/11/23 00:45:24;;;;;;;;;;;9.90;99.90;;;;;;6098044;23;19979;-77
2022/11/23 00:47:49;;;;;;;;;;;9.80;99.90;;;;;;6098593;23;19908;-77
2022/11/23 00:50:15;;;;;;;;;;;9.80;99.90;;;;;;6098052;23;20005;-77
2022/11/23 00:52:41;;;;;;;;;;;9.80;99.90;;;;;;6097933;23;20244;-77
2022/11/23 00:55:06;;;;;;;;;;;9.80;1.00;;;;;;6097914;23;19912;-77
2022/11/23 00:57:33;;;;;;;;;;;9.80;1.00;;;;;;6098059;23;19902;-78
2022/11/23 00:59:58;;;;;;;;;;;9.80;1.00;;;;;;6097780;23;19905;-78
2022/11/23 01:02:24;;;;;;;;;;;9.80;1.00;;;;;;6098330;23;20343;-78
2022/11/23 01:04:49;;;;;;;;;;;9.80;1.00;;;;;;6097903;23;19901;-76
2022/11/23 01:07:15;;;;;;;;;;;9.80;1.00;;;;;;6097898;23;19901;-78
2022/11/23 01:09:40;;;;;;;;;;;9.80;1.00;;;;;;6097789;23;19901;-77
2022/11/23 01:12:06;;;;;;;;;;;9.80;1.00;;;;;;6098405;23;19920;-77
2022/11/23 01:14:31;;;;;;;;;;;9.90;8.10;;;;;;6097810;23;20317;-78
2022/11/23 01:16:57;;;;;;;;;;;9.90;28.50;;;;;;6098104;23;19901;-77
2022/11/23 01:19:24;;;;;;;;;;;9.90;31.70;;;;;;6097679;23;20382;-77
2022/11/23 01:21:50;;;;;;;;;;;10.00;48.60;;;;;;6096199;23;20320;-77
2022/11/23 01:24:16;;;;;;;;;;;10.00;38.20;;;;;;6097730;23;19976;-77
2022/11/23 01:26:43;;;;;;;;;;;10.00;45.30;;;;;;6097602;23;19908;-76
2022/11/23 01:29:09;;;;;;;;;;;10.10;61.30;;;;;;6095991;23;19909;-77
2022/11/23 01:31:34;;;;;;;;;;;10.10;93.80;;;;;;6095877;23;19913;-77
2022/11/23 01:34:00;;;;;;;;;;;10.10;98.90;;;;;;6097780;23;19901;-77
2022/11/23 01:36:27;;;;;;;;;;;10.20;99.90;;;;;;6098162;23;20358;-77
2022/11/23 01:38:53;;;;;;;;;;;10.30;99.90;;;;;;6097777;23;19905;-77
2022/11/23 01:41:26;;;;;;;;;;;10.30;99.90;;;;;;6097290;23;19901;-77
2022/11/23 01:43:52;;;;;;;;;;;10.30;99.90;;;;;;6097657;23;19976;-78
2022/11/23 01:46:17;;;;;;;;;;;10.40;99.90;;;;;;6098492;23;19928;-77
2022/11/23 01:48:52;;;;;;;;;;;10.40;99.90;;;;;;6097643;23;19901;-77
2022/11/23 01:51:24;;;;;;;;;;;10.40;99.90;;;;;;6097705;23;19901;-77
2022/11/23 01:53:51;;;;;;;;;;;10.40;99.90;;;;;;6097629;23;19901;-78
2022/11/23 01:56:19;;;;;;;;;;;10.50;99.90;;;;;;6097592;23;19905;-76
2022/11/23 01:58:48;;;;;;;;;;;10.50;99.90;;;;;;6097473;23;19912;-77
2022/11/23 02:01:14;;;;;;;;;;;10.40;99.90;;;;;;6097569;23;19901;-77
2022/11/23 02:03:41;;;;;;;;;;;10.40;99.90;;;;;;6097529;23;19972;-78
2022/11/23 02:06:10;;;;;;;;;;;10.40;99.90;;;;;;6095894;23;20300;-77
2022/11/23 02:08:36;;;;;;;;;;;10.40;99.90;;;;;;6098049;23;19929;-76
2022/11/23 02:11:02;;;;;;;;;;;10.40;99.90;;;;;;6097715;23;19980;-76
2022/11/23 02:13:28;;;;;;;;;;;10.40;99.90;;;;;;6097720;23;19902;-78
2022/11/23 02:15:54;;;;;;;;;;;10.40;99.90;;;;;;6097506;23;19901;-77
2022/11/23 02:18:24;;;;;;;;;;;10.40;99.90;;;;;;6095866;23;19944;-77
2022/11/23 02:20:50;;;;;;;;;;;10.40;99.90;;;;;;6097527;23;19901;-77
2022/11/23 02:23:34;;;;;;;;;;;10.50;99.90;;;;;;6097725;23;19908;-77
2022/11/23 02:26:08;;;;;;;;;;;10.50;99.90;;;;;;6097604;23;19968;-77
2022/11/23 02:28:40;;;;;;;;;;;10.50;99.90;;;;;;6097405;23;19905;-78
2022/11/23 02:31:05;;;;;;;;;;;10.50;99.90;;;;;;6097797;23;19952;-78
2022/11/23 02:33:31;;;;;;;;;;;10.50;99.90;;;;;;6097907;23;19983;-76
2022/11/23 02:35:57;;;;;;;;;;;10.50;1.00;;;;;;6097478;23;19912;-78
2022/11/23 02:38:25;;;;;;;;;;;10.50;1.00;;;;;;6097371;23;19907;-77
2022/11/23 02:40:51;;;;;;;;;;;10.50;99.90;;;;;;6097428;23;19901;-77
2022/11/23 02:43:16;;;;;;;;;;;10.50;1.00;;;;;;6097475;23;20328;-77
2022/11/23 02:45:46;;;;;;;;;;;10.60;1.00;;;;;;6097639;23;19905;-77
2022/11/23 02:48:12;;;;;;;;;;;10.50;1.00;;;;;;6098156;23;19901;-77
2022/11/23 02:50:37;;;;;;;;;;;10.60;1.00;;;;;;6097423;23;19983;-77
2022/11/23 02:53:03;;;;;;;;;;;10.50;1.00;;;;;;6098689;23;20324;-77
2022/11/23 02:55:28;;;;;;;;;;;10.60;1.00;;;;;;6097534;23;19908;-77
2022/11/23 02:57:54;;;;;;;;;;;10.50;1.00;;;;;;6099081;23;19901;-77
2022/11/23 03:00:20;;;;;;;;;;;10.60;1.00;;;;;;6099078;23;19905;-77
2022/11/23 03:02:45;;;;;;;;;;;10.50;1.00;;;;;;6097467;23;19909;-77
2022/11/23 03:05:11;;;;;;;;;;;10.50;1.00;;;;;;6099584;23;20277;-77
2022/11/23 03:07:36;;;;;;;;;;;10.50;1.00;;;;;;6099010;23;19905;-76
2022/11/23 03:10:03;;;;;;;;;;;10.50;1.00;;;;;;6099179;23;20213;-77
2022/11/23 03:12:28;;;;;;;;;;;10.50;1.00;;;;;;6099059;23;19979;-78
2022/11/23 03:14:54;;;;;;;;;;;10.50;1.00;;;;;;6097421;23;20284;-77
2022/11/23 03:17:19;;;;;;;;;;;10.50;1.00;;;;;;6099478;23;19901;-76
2022/11/23 03:19:45;;;;;;;;;;;10.50;1.00;;;;;;6098821;23;19912;-78
2022/11/23 03:22:11;;;;;;;;;;;10.50;1.00;;;;;;6099169;23;20001;-78
2022/11/23 03:24:36;;;;;;;;;;;10.50;1.00;;;;;;6098813;23;19905;-78
2022/11/23 03:27:02;;;;;;;;;;;10.50;1.00;;;;;;6098849;23;19909;-78
2022/11/23 03:29:27;;;;;;;;;;;10.40;1.00;;;;;;6098727;23;19901;-79
2022/11/23 03:31:53;;;;;;;;;;;10.40;1.00;;;;;;6098917;23;20315;-77
2022/11/23 03:34:19;;;;;;;;;;;10.40;1.00;;;;;;6098952;23;19901;-78
2022/11/23 03:36:44;;;;;;;;;;;10.40;1.00;;;;;;6098670;23;19984;-78
2022/11/23 03:39:10;;;;;;;;;;;10.50;1.00;;;;;;6099137;23;19929;-77
2022/11/23 03:41:36;;;;;;;;;;;10.50;1.00;;;;;;6098662;23;19960;-78
2022/11/23 03:44:02;;;;;;;;;;;10.50;1.00;;;;;;6099025;23;20233;-77
2022/11/23 03:46:27;;;;;;;;;;;10.40;1.00;;;;;;6098772;23;19905;-77
2022/11/23 03:48:53;;;;;;;;;;;10.40;24.70;;;;;;6099153;23;19908;-78
2022/11/23 03:51:18;;;;;;;;;;;10.40;41.70;;;;;;6098774;23;20312;-77
2022/11/23 03:53:44;;;;;;;;;;;10.40;44.80;;;;;;6098561;23;19980;-77
2022/11/23 03:56:09;;;;;;;;;;;10.40;49.50;;;;;;6098495;23;19901;-77
2022/11/23 03:58:35;;;;;;;;;;;10.40;80.00;;;;;;6098418;23;19925;-78
2022/11/23 04:01:00;;;;;;;;;;;10.40;89.00;;;;;;6098948;23;19901;-78
2022/11/23 04:03:26;;;;;;;;;;;10.40;80.10;;;;;;6098470;23;19913;-78
2022/11/23 04:05:52;;;;;;;;;;;10.50;93.20;;;;;;6098453;23;19901;-78
2022/11/23 04:08:17;;;;;;;;;;;10.50;94.30;;;;;;6098481;23;19901;-78
2022/11/23 04:10:43;;;;;;;;;;;10.50;99.90;;;;;;6096807;23;19901;-78
2022/11/23 04:13:09;;;;;;;;;;;10.50;99.90;;;;;;6098327;23;19908;-76
2022/11/23 04:15:34;;;;;;;;;;;10.50;99.90;;;;;;6098349;23;20399;-78
2022/11/23 04:18:00;;;;;;;;;;;10.50;99.90;;;;;;6098296;23;19925;-78
2022/11/23 04:20:26;;;;;;;;;;;10.50;99.90;;;;;;6098172;23;19905;-78
2022/11/23 04:22:52;;;;;;;;;;;10.50;99.90;;;;;;6098266;23;19959;-78
2022/11/23 04:25:17;;;;;;;;;;;10.50;99.90;;;;;;6096649;23;20347;-76
2022/11/23 04:27:43;;;;;;;;;;;10.50;99.90;;;;;;6098242;23;19906;-78
2022/11/23 04:30:09;;;;;;;;;;;10.50;99.90;;;;;;6098214;23;20267;-78
2022/11/23 04:32:35;;;;;;;;;;;10.60;99.90;;;;;;6097965;23;20017;-78
2022/11/23 04:35:00;;;;;;;;;;;10.60;99.90;;;;;;6098217;23;19901;-77
2022/11/23 04:37:26;;;;;;;;;;;10.60;99.90;;;;;;6098106;23;19912;-78
2022/11/23 04:39:51;;;;;;;;;;;10.70;99.90;;;;;;6098050;23;19987;-78
2022/11/23 04:42:17;;;;;;;;;;;10.70;99.90;;;;;;6098134;23;19901;-78
2022/11/23 04:44:43;;;;;;;;;;;10.70;99.90;;;;;;6096461;23;19908;-77
2022/11/23 04:47:09;;;;;;;;;;;10.80;99.90;;;;;;6098731;23;20321;-77
2022/11/23 04:49:35;;;;;;;;;;;10.80;99.90;;;;;;6097981;23;19933;-78
2022/11/23 04:52:00;;;;;;;;;;;10.80;99.90;;;;;;6098258;23;19952;-78
2022/11/23 04:54:26;;;;;;;;;;;10.90;99.90;;;;;;6097999;23;20379;-77
2022/11/23 04:56:53;;;;;;;;;;;10.80;99.90;;;;;;6098079;23;19909;-78
2022/11/23 04:59:18;;;;;;;;;;;10.90;99.90;;;;;;6097986;23;20284;-78
2022/11/23 05:01:44;;;;;;;;;;;10.90;99.90;;;;;;6097886;23;19984;-78
2022/11/23 05:04:10;;;;;;;;;;;10.90;99.90;;;;;;6097887;23;19955;-78
2022/11/23 05:06:35;;;;;;;;;;;11.00;99.90;;;;;;6098035;23;19909;-78
2022/11/23 05:09:01;;;;;;;;;;;10.90;99.90;;;;;;6097994;23;19901;-78
2022/11/23 05:11:27;;;;;;;;;;;11.00;99.90;;;;;;6096248;23;19976;-77
2022/11/23 05:13:52;;;;;;;;;;;11.10;99.90;;;;;;6097828;23;19908;-78
2022/11/23 05:16:18;;;;;;;;;;;11.10;99.90;;;;;;6096195;23;19905;-78
2022/11/23 05:18:43;;;;;;;;;;;11.20;99.90;;;;;;6098075;23;19905;-77
2022/11/23 05:21:09;;;;;;;;;;;11.20;99.90;;;;;;6097812;23;20240;-77
2022/11/23 05:23:34;;;;;;;;;;;11.20;99.90;;;;;;6097916;23;19962;-78
2022/11/23 05:26:00;;;;;;;;;;;11.30;99.90;;;;;;6097752;23;19901;-78
2022/11/23 05:28:26;;;;;;;;;;;11.30;99.90;;;;;;6097630;23;20344;-77
2022/11/23 05:30:52;;;;;;;;;;;11.30;99.90;;;;;;6097669;23;19902;-77
2022/11/23 05:33:18;;;;;;;;;;;11.30;99.90;;;;;;6097128;23;19936;-77
2022/11/23 05:35:43;;;;;;;;;;;11.40;99.90;;;;;;6097614;23;19901;-77
2022/11/23 05:38:09;;;;;;;;;;;11.50;99.90;;;;;;6096031;23;19972;-77
2022/11/23 05:40:34;;;;;;;;;;;11.50;99.90;;;;;;6097714;23;19912;-78
2022/11/23 05:43:00;;;;;;;;;;;11.40;99.90;;;;;;6097643;23;20241;-79
2022/11/23 05:45:26;;;;;;;;;;;11.40;99.90;;;;;;6097651;23;19993;-77
2022/11/23 05:47:55;;;;;;;;;;;11.40;99.90;;;;;;6098414;23;19977;-78
2022/11/23 05:50:22;;;;;;;;;;;11.40;99.90;;;;;;6097823;23;19901;-78
2022/11/23 05:52:47;;;;;;;;;;;11.40;99.90;;;;;;6097690;23;19988;-77
2022/11/23 05:55:13;;;;;;;;;;;11.50;99.90;;;;;;6097712;23;19901;-77
2022/11/23 05:57:39;;;;;;;;;;;11.60;99.90;;;;;;6098046;23;19953;-77
2022/11/23 06:00:05;;;;;;;;;;;11.60;99.90;;;;;;6097490;23;19905;-77
2022/11/23 06:02:31;;;;;;;;;;;11.60;99.90;;;;;;6097667;23;19971;-76
2022/11/23 06:04:56;;;;;;;;;;;11.70;99.90;;;;;;6097656;23;20351;-77
2022/11/23 06:07:22;;;;;;;;;;;11.80;99.90;;;;;;6097550;23;19901;-76
2022/11/23 06:09:47;;;;;;;;;;;11.80;99.90;;;;;;6097579;23;19928;-76
2022/11/23 06:12:13;;;;;;;;;;;11.90;99.90;;;;;;6097591;23;19901;-77
2022/11/23 06:14:39;;;;;;;;;;;;;;;;;;6097784;23;19901;-76
2022/11/23 06:17:04;;;;;;;;;;;11.80;99.90;;;;;;6095962;23;19907;-76
2022/11/23 06:19:30;;;;;;;;;;;11.80;99.90;;;;;;6097501;23;19905;-77
2022/11/23 06:21:56;;;;;;;;;;;11.80;99.90;;;;;;6097461;23;19980;-76
2022/11/23 06:24:22;;;;;;;;;;;11.80;99.90;;;;;;6097356;23;19908;-76
2022/11/23 06:26:47;;;;;;;;;;;11.70;99.90;;;;;;6097902;23;19901;-77
2022/11/23 06:29:13;;;;;;;;;;;11.60;99.90;;;;;;6099338;23;19916;-77
2022/11/23 06:31:39;;;;;;;;;;;11.50;99.90;;;;;;6097541;23;20333;-77
2022/11/23 06:34:04;;;;;;;;;;;11.40;99.90;;;;;;6099361;23;19960;-77
2022/11/23 06:36:30;;;;;;;;;;;11.50;99.90;;;;;;6099354;23;19908;-77
2022/11/23 06:38:56;;;;;;;;;;;11.50;99.90;;;;;;6099262;23;20363;-77
2022/11/23 06:41:21;;;;;;;;;;;11.60;99.90;;;;;;6099366;23;19936;-76
2022/11/23 06:43:47;;;;;;;;;;;11.60;99.90;;;;;;6099329;23;19906;-76
2022/11/23 06:46:12;;;;;;;;;;;11.50;99.90;;;;;;6099210;23;19908;-77
2022/11/23 06:48:38;;;;;;;;;;;11.70;99.90;;;;;;6099775;23;19905;-77
2022/11/23 06:51:03;;;;;;;;;;;11.70;99.90;;;;;;6097603;23;19901;-75
2022/11/23 06:53:29;;;;;;;;;;;11.80;99.90;;;;;;6099177;23;19905;-77
2022/11/23 06:55:58;;;;;;;;;;;11.80;99.90;;;;;;6099214;23;19952;-76
2022/11/23 06:58:24;;;;;;;;;;;11.80;99.90;;;;;;6099342;23;19936;-76
2022/11/23 07:00:50;;;;;;;;;;;11.80;99.90;;;;;;6099089;23;19987;-76
2022/11/23 07:03:22;;;;;;;;;;;11.80;99.90;;;;;;6098977;23;19901;-76
2022/11/23 07:05:48;;;;;;;;;;;11.70;99.90;;;;;;6099052;23;20221;-76
2022/11/23 07:08:13;;;;;;;;;;;11.60;99.90;;;;;;6099027;23;19983;-76
2022/11/23 07:10:39;;;;;;;;;;;11.60;99.90;;;;;;6098968;23;19984;-76
2022/11/23 07:13:05;;;;;;;;;;;11.60;99.90;;;;;;6098898;23;20324;-76
2022/11/23 07:15:31;;;;;;;;;;;11.50;99.90;;;;;;6098962;23;20236;-75
2022/11/23 07:17:57;;;;;;;;;;;11.60;99.90;;;;;;6097287;23;19905;-77
2022/11/23 07:20:22;;;;;;;;;;;11.50;99.90;;;;;;6098747;23;19909;-77
2022/11/23 07:22:57;;;;;;;;;;;11.40;99.90;;;;;;6098878;23;19976;-76
2022/11/23 07:25:22;;;;;;;;;;;11.40;99.90;;;;;;6099084;23;19901;-76
2022/11/23 07:27:53;;;;;;;;;;;11.30;99.90;;;;;;6098895;23;19951;-76
2022/11/23 07:30:19;;;;;;;;;;;11.30;99.90;;;;;;6098750;23;19968;-76
2022/11/23 07:32:44;;;;;;;;;;;11.20;99.90;;;;;;6098539;23;20340;-77
2022/11/23 07:35:11;;;;;;;;;;;11.10;99.90;;;;;;6098721;23;19936;-75
2022/11/23 07:37:37;;;;;;;;;;;11.10;99.90;;;;;;6098582;23;19905;-77
2022/11/23 07:40:03;;;;;;;;;;;11.20;99.90;;;;;;6098807;23;20033;-77
2022/11/23 07:42:28;;;;;;;;;;;11.20;99.90;;;;;;6097136;23;20239;-77
2022/11/23 07:44:54;;;;;;;;;;;11.20;99.90;;;;;;6098627;23;19908;-76
2022/11/23 07:47:19;;;;;;;;;;;11.20;99.90;;;;;;6099166;23;19901;-77
2022/11/23 07:49:45;;;;;;;;;;;11.30;99.90;;;;;;6098610;23;20243;-77
2022/11/23 07:52:11;;;;;;;;;;;11.30;99.90;;;;;;6098531;23;19908;-76
2022/11/23 07:54:36;;;;;;;;;;;11.40;99.90;;;;;;6096930;23;19905;-76
2022/11/23 07:57:02;;;;;;;;;;;11.50;99.90;;;;;;6098519;23;20342;-76
2022/11/23 07:59:28;;;;;;;;;;;11.50;99.90;;;;;;6098398;23;19956;-77
2022/11/23 08:01:53;;;;;;;;;;;11.70;99.90;;;;;;6098752;23;19901;-76
2022/11/23 08:04:19;;;;;;;;;;;11.70;99.90;;;;;;6096918;23;20409;-76
2022/11/23 08:06:45;;;;;;;;;;;11.60;99.90;;;;;;6098447;23;19901;-75
2022/11/23 08:09:10;;;;;;;;;;;11.70;99.90;;;;;;6096765;23;19901;-76
2022/11/23 08:11:36;;;;;;;;;;;11.50;99.90;;;;;;6098798;23;19912;-76
2022/11/23 08:14:01;;;;;;;;;;;11.50;99.90;;;;;;6098197;23;19901;-76
2022/11/23 08:16:27;;;;;;;;;;;11.40;99.90;;;;;;6098325;23;20342;-76
2022/11/23 08:18:52;;;;;;;;;;;11.50;99.90;;;;;;6098099;23;19983;-76
2022/11/23 08:21:18;;;;;;;;;;;11.80;99.90;;;;;;6098367;23;20302;-76
2022/11/23 08:23:43;;;;;;;;;;;12.40;99.90;;;;;;6098069;23;19901;-76
2022/11/23 08:26:09;;;;;;;;;;;12.70;1.00;;;;;;6098168;23;19908;-76
2022/11/23 08:28:37;;;;;;;;;;;13.10;1.00;;;;;;6097870;23;19901;-76
2022/11/23 08:31:06;;;;;;;;;;;13.60;1.00;;;;;;6098028;23;19921;-76
2022/11/23 08:33:32;;;;;;;;;;;14.00;99.90;;;;;;6098299;23;19936;-76
2022/11/23 08:36:01;;;;;;;;;;;14.20;99.90;;;;;;6098108;23;19908;-77
2022/11/23 08:38:27;;;;;;;;;;;14.40;99.90;;;;;;6098089;23;19905;-77
2022/11/23 08:40:56;;;;;;;;;;;14.60;99.90;;;;;;6097979;23;19912;-76
2022/11/23 08:43:22;;;;;;;;;;;15.00;99.90;;;;;;6098266;23;20321;-77
2022/11/23 08:45:48;;;;;;;;;;;15.00;99.90;;;;;;6097735;23;19917;-76
2022/11/23 08:48:13;;;;;;;;;;;15.50;99.90;;;;;;6098648;23;20269;-77
2022/11/23 08:50:39;;;;;;;;;;;15.50;99.90;;;;;;6097796;23;19908;-76
2022/11/23 08:53:05;;;;;;;;;;;15.70;99.90;;;;;;6098202;23;19968;-77
2022/11/23 08:55:30;;;;;;;;;;;16.20;99.90;;;;;;6097837;23;20387;-75
2022/11/23 08:57:56;;;;;;;;;;;16.60;99.90;;;;;;6097985;23;19909;-77
2022/11/23 09:00:22;;;;;;;;;;;16.80;99.90;;;;;;6097824;23;20335;-74
2022/11/23 09:02:48;;;;;;;;;;;16.90;99.90;;;;;;6097843;23;19901;-77
2022/11/23 09:05:14;;;;;;;;;;;17.30;99.90;;;;;;6097789;23;19957;-75
2022/11/23 09:07:39;;;;;;;;;;;17.50;99.90;;;;;;6098334;23;19902;-75
2022/11/23 09:10:05;;;;;;;;;;;17.80;99.90;;;;;;6098000;23;20013;-75
2022/11/23 09:12:31;;;;;;;;;;;18.40;99.90;;;;;;6097929;23;19957;-77
2022/11/23 09:14:57;;;;;;;;;;;18.10;99.90;;;;;;6097744;23;19905;-77
2022/11/23 09:17:22;;;;;;;;;;;18.60;99.90;;;;;;6097790;23;20028;-77
2022/11/23 09:19:49;;;;;;;;;;;19.10;99.90;;;;;;6097697;23;19912;-78
2022/11/23 09:22:14;;;;;;;;;;;18.60;91.40;;;;;;6097676;23;19976;-76
2022/11/23 09:24:40;;;;;;;;;;;18.50;95.70;;;;;;6097731;23;19932;-76
2022/11/23 09:27:06;;;;;;;;;;;18.80;99.90;;;;;;6097723;23;20309;-77
2022/11/23 09:29:31;;;;;;;;;;;18.80;52.80;;;;;;6097676;23;19928;-76
2022/11/23 09:31:57;;;;;;;;;;;19.20;28.80;;;;;;6097348;23;20336;-77
2022/11/23 09:34:22;;;;;;;;;;;19.90;99.90;;;;;;6096027;23;19979;-76
2022/11/23 09:36:48;;;;;;;;;;;19.30;24.70;;;;;;6097629;23;19901;-77
2022/11/23 09:39:13;;;;;;;;;;;20.10;97.40;;;;;;6097570;23;19912;-77
2022/11/23 09:41:58;;;;;;;;;;;19.60;57.10;;;;;;6097745;23;19901;-78
2022/11/23 09:44:42;;;;;;;;;;;19.60;35.20;;;;;;6097932;23;19901;-77
2022/11/23 09:47:11;;;;;;;;;;;21.10;74.40;;;;;;6097766;23;19908;-77
2022/11/23 09:49:36;;;;;;;;;;;20.40;55.90;;;;;;6098344;23;19905;-78
2022/11/23 09:52:02;;;;;;;;;;;20.60;75.70;;;;;;6095918;23;19901;-77
2022/11/23 09:54:28;;;;;;;;;;;20.50;27.70;;;;;;6097871;23;19908;-78
2022/11/23 09:56:54;;;;;;;;;;;20.20;1.00;;;;;;6097530;23;19972;-77
2022/11/23 09:59:25;;;;;;;;;;;20.80;31.00;;;;;;6097464;23;19957;-77
2022/11/23 10:01:50;;;;;;;;;;;21.30;17.80;;;;;;6097888;23;20217;-77
2022/11/23 10:04:17;;;;;;;;;;;21.70;1.00;;;;;;6099520;23;19925;-77
2022/11/23 10:06:43;;;;;;;;;;;22.60;1.00;;;;;;6099637;23;19901;-78
2022/11/23 10:09:23;;;;;;;;;;;23.30;1.00;;;;;;6099592;23;19901;-77
2022/11/23 10:12:07;;;;;;;;;;;22.30;1.00;;;;;;6098064;23;20336;-77
2022/11/23 10:14:45;;;;;;;;;;;22.20;1.00;;;;;;6097995;23;19901;-77
2022/11/23 10:17:10;;;;;;;;;;;22.10;1.00;;;;;;6099593;23;19901;-77
2022/11/23 10:19:58;;;;;;;;;;;22.50;1.00;;;;;;6097811;23;20067;-77
2022/11/23 10:22:38;;;;;;;;;;;22.00;1.00;;;;;;6099500;23;19937;-77
2022/11/23 10:25:14;;;;;;;;;;;22.10;1.00;;;;;;6099671;23;19901;-78
2022/11/23 10:27:41;;;;;;;;;;;23.30;1.00;;;;;;6099326;23;19901;-76
2022/11/23 10:30:13;;;;;;;;;;;21.50;1.00;;;;;;6099287;23;19929;-78
2022/11/23 10:32:45;;;;;;;;;;;21.80;1.00;;;;;;6099090;23;19924;-77
2022/11/23 10:35:12;;;;;;;;;;;22.10;1.00;;;;;;6099344;23;19920;-77
2022/11/23 10:37:39;;;;;;;;;;;22.00;1.00;;;;;;6099345;23;19964;-77
2022/11/23 10:40:16;;;;;;;;;;;22.40;1.00;;;;;;6099218;23;19905;-78
2022/11/23 10:42:44;;;;;;;;;;;22.60;1.00;;;;;;6099514;23;19909;-78
2022/11/23 10:45:39;;;;;;;;;;;22.80;1.00;;;;;;6099185;23;19909;-79
2022/11/23 10:48:05;;;;;;;;;;;21.60;1.00;;;;;;6087008;23;19901;-77
2022/11/23 10:50:36;;;;;;;;;;;21.70;1.00;;;;;;6099555;23;20412;-78
2022/11/23 10:53:04;;;;;;;;;;;22.50;1.00;;;;;;6099412;23;19901;-77
2022/11/23 10:55:31;;;;;;;;;;;21.90;1.00;;;;;;6099179;23;19984;-78
2022/11/23 10:57:57;;;;;;;;;;;22.90;1.00;;;;;;6097616;23;19976;-78
2022/11/23 11:00:26;;;;;;;;;;;23.20;1.00;;;;;;6098997;23;20355;-75
2022/11/23 11:02:53;;;;;;;;;;;23.00;1.00;;;;;;6099202;23;19902;-76
2022/11/23 11:05:32;;;;;;;;;;;23.10;1.00;;;;;;6098982;23;19948;-76
2022/11/23 11:08:02;;;;;;;;;;;22.20;1.00;;;;;;6098919;23;19913;-76
2022/11/23 11:10:30;;;;;;;;;;;22.30;1.00;;;;;;6099589;23;20272;-76
2022/11/23 11:12:56;;;;;;;;;;;22.30;1.00;;;;;;6098950;23;19901;-75
2022/11/23 11:15:22;;;;;;;;;;;22.30;1.00;;;;;;6098956;23;20380;-76
2022/11/23 11:17:53;;;;;;;;;;;23.00;1.00;;;;;;6097354;23;19905;-74
2022/11/23 11:20:30;;;;;;;;;;;22.50;1.00;;;;;;6099105;23;19932;-76
2022/11/23 11:23:00;;;;;;;;;;;23.20;1.00;;;;;;6096962;23;19901;-74
2022/11/23 11:25:29;;;;;;;;;;;22.70;1.00;;;;;;6098894;23;19988;-76
2022/11/23 11:27:55;;;;;;;;;;;22.30;1.00;;;;;;6099041;23;19902;-76
2022/11/23 11:30:25;;;;;;;;;;;22.90;1.00;;;;;;6098720;23;19901;-75
2022/11/23 11:32:51;;;;;;;;;;;22.70;1.00;;;;;;6098540;23;19984;-76
2022/11/23 11:35:27;;;;;;;;;;;22.60;1.00;;;;;;6098676;23;20237;-75
2022/11/23 11:38:19;;;;;;;;;;;22.20;1.00;;;;;;6098713;23;19908;-75
2022/11/23 11:40:49;;;;;;;;;;;22.60;1.00;;;;;;6095515;23;19958;-76
2022/11/23 11:43:17;;;;;;;;;;;22.00;1.00;;;;;;6098769;23;19905;-75
2022/11/23 11:45:44;;;;;;;;;;;23.40;1.00;;;;;;6098942;23;19952;-75
2022/11/23 11:48:13;;;;;;;;;;;23.40;1.00;;;;;;6099222;23;19909;-76
2022/11/23 11:50:52;;;;;;;;;;;23.30;1.00;;;;;;6097021;23;19901;-75
2022/11/23 11:53:21;;;;;;;;;;;22.90;1.00;;;;;;6098552;23;19909;-74
2022/11/23 11:55:52;;;;;;;;;;;22.60;1.00;;;;;;6098465;23;19957;-76
2022/11/23 11:58:18;;;;;;;;;;;22.70;1.00;;;;;;6099351;23;19951;-76
2022/11/23 12:00:46;;;;;;;;;;;23.50;1.00;;;;;;6098403;23;19905;-76
2022/11/23 12:03:11;;;;;;;;;;;23.40;1.00;;;;;;6098412;23;20243;-76
2022/11/23 12:05:40;;;;;;;;;;;23.70;1.00;;;;;;6098458;23;19929;-75
2022/11/23 12:08:14;;;;;;;;;;;23.70;1.00;;;;;;6098429;23;20469;-76
2022/11/23 12:10:49;;;;;;;;;;;23.30;1.00;;;;;;6096804;23;19987;-76
2022/11/23 12:13:16;;;;;;;;;;;23.50;1.00;;;;;;6098395;23;19901;-76
2022/11/23 12:15:45;;;;;;;;;;;23.60;1.00;;;;;;6098656;23;19901;-75
2022/11/23 12:18:23;;;;;;;;;;;23.10;1.00;;;;;;6096796;23;19901;-75
2022/11/23 12:21:07;;;;;;;;;;;24.40;1.00;;;;;;6096618;23;19921;-78
2022/11/23 12:23:33;;;;;;;;;;;22.40;1.00;;;;;;6098320;23;19902;-78
2022/11/23 12:26:04;;;;;;;;;;;23.50;1.00;;;;;;6098002;23;20320;-78
2022/11/23 12:28:48;;;;;;;;;;;23.70;1.00;;;;;;6098222;23;19901;-74
2022/11/23 12:31:28;;;;;;;;;;;23.10;1.00;;;;;;6097965;23;20339;-74
2022/11/23 12:34:12;;;;;;;;;;;23.10;1.00;;;;;;6098596;23;19907;-74
2022/11/23 12:36:53;;;;;;;;;;;22.60;1.00;;;;;;6098354;23;19901;-75
2022/11/23 12:39:24;;;;;;;;;;;22.90;1.00;;;;;;6098157;23;19937;-76
2022/11/23 12:41:58;;;;;;;;;;;23.00;1.00;;;;;;6098567;23;19902;-76
2022/11/23 12:44:34;;;;;;;;;;;22.70;1.00;;;;;;6098241;23;19908;-75
2022/11/23 12:47:18;;;;;;;;;;;22.60;1.00;;;;;;6096177;23;19901;-73
2022/11/23 12:49:56;;;;;;;;;;;22.60;1.00;;;;;;6099171;23;20317;-75
2022/11/23 12:52:34;;;;;;;;;;;22.10;1.00;;;;;;6096410;23;19901;-77
2022/11/23 12:55:17;;;;;;;;;;;21.90;1.00;;;;;;6096339;23;19908;-78
2022/11/23 12:57:49;;;;;;;;;;;22.60;1.00;;;;;;6098300;23;19901;-74
2022/11/23 13:00:19;;;;;;;;;;;23.20;1.00;;;;;;6097690;23;20029;-76
2022/11/23 13:02:54;;;;;;;;;;;22.30;1.00;;;;;;6097447;23;19901;-77
2022/11/23 13:05:20;;;;;;;;;;;21.60;1.00;;;;;;6097903;23;19902;-77
2022/11/23 13:07:59;;;;;;;;;;;21.70;1.00;;;;;;6097873;23;20236;-78
2022/11/23 13:10:27;;;;;;;;;;;22.00;1.00;;;;;;6098104;23;19948;-77
2022/11/23 13:12:53;;;;;;;;;;;21.10;1.00;;;;;;6097885;23;19901;-77
2022/11/23 13:15:24;;;;;;;;;;;19.20;1.00;;;;;;6097839;23;20217;-76
2022/11/23 13:17:56;;;;;;;;;;;18.00;1.00;;;;;;6096233;23;20324;-77
2022/11/23 13:20:28;;;;;;;;;;;16.20;6.70;;;;;;6097980;23;19941;-76
2022/11/23 13:22:55;;;;;;;;;;;15.30;12.70;;;;;;6097870;23;19901;-77
2022/11/23 13:25:22;;;;;;;;;;;16.70;8.50;;;;;;6097671;23;19984;-77
2022/11/23 13:27:47;;;;;;;;;;;19.40;1.00;;;;;;6098020;23;20320;-78
2022/11/23 13:30:23;;;;;;;;;;;20.80;1.00;;;;;;6095874;23;19902;-78
2022/11/23 13:32:56;;;;;;;;;;;21.70;1.00;;;;;;6097545;23;20292;-77
2022/11/23 13:35:22;;;;;;;;;;;22.20;1.00;;;;;;6098059;23;19908;-78
2022/11/23 13:37:56;;;;;;;;;;;22.10;1.00;;;;;;6097643;23;19905;-77
2022/11/23 13:40:23;;;;;;;;;;;22.30;1.00;;;;;;6097572;23;19921;-77
2022/11/23 13:42:50;;;;;;;;;;;22.00;1.00;;;;;;6097671;23;19908;-76
2022/11/23 13:45:18;;;;;;;;;;;22.60;1.00;;;;;;6097647;23;19901;-77
2022/11/23 13:48:02;;;;;;;;;;;23.40;1.00;;;;;;6098004;23;19954;-77
2022/11/23 13:50:28;;;;;;;;;;;23.60;1.00;;;;;;6098342;23;19929;-77
2022/11/23 13:52:53;;;;;;;;;;;22.60;1.00;;;;;;6097655;23;19901;-77
2022/11/23 13:55:30;;;;;;;;;;;22.60;1.00;;;;;;6097586;23;19902;-76
2022/11/23 13:58:14;;;;;;;;;;;22.80;1.00;;;;;;6095743;23;19909;-77
2022/11/23 14:00:43;;;;;;;;;;;22.50;1.00;;;;;;6097753;23;20316;-77
2022/11/23 14:03:27;;;;;;;;;;;22.70;1.00;;;;;;6097678;23;19901;-77
2022/11/23 14:05:55;;;;;;;;;;;23.00;1.00;;;;;;6097631;23;19901;-77
2022/11/23 14:08:22;;;;;;;;;;;22.60;1.00;;;;;;6095987;23;19901;-77
2022/11/23 14:10:48;;;;;;;;;;;22.40;1.00;;;;;;6097870;23;20285;-76
2022/11/23 14:13:16;;;;;;;;;;;22.10;1.00;;;;;;6097541;23;19957;-78
2022/11/23 14:15:44;;;;;;;;;;;21.80;1.00;;;;;;6097772;23;19908;-77
2022/11/23 14:18:29;;;;;;;;;;;21.40;1.00;;;;;;6097715;23;20236;-78
2022/11/23 14:21:16;;;;;;;;;;;21.50;1.00;;;;;;6097512;23;19988;-77
2022/11/23 14:23:44;;;;;;;;;;;21.20;1.00;;;;;;6097508;23;19905;-78
2022/11/23 14:26:10;;;;;;;;;;;21.10;1.00;;;;;;6097470;23;19902;-78
2022/11/23 14:28:50;;;;;;;;;;;21.80;1.00;;;;;;6097398;23;19932;-78